createdAt,value
2023-05-02T00:01:08.267Z,100.00
2023-05-02T00:04:51.093Z,100.00
2023-05-02T00:08:33.933Z,100.00
2023-05-02T00:12:16.584Z,100.00
2023-05-02T00:15:59.403Z,100.00
2023-05-02T00:19:43.479Z,100.00
2023-05-02T00:23:26.109Z,100.00
2023-05-02T00:27:08.746Z,100.00
2023-05-02T00:30:54.364Z,100.00
2023-05-02T00:34:37.048Z,100.00
2023-05-02T00:38:21.279Z,100.00
2023-05-02T00:42:06.594Z,100.00
2023-05-02T00:45:52.498Z,100.00
2023-05-02T00:49:35.191Z,100.00
2023-05-02T00:53:18.154Z,100.00
2023-05-02T00:57:02.958Z,100.00
2023-05-02T01:00:56.616Z,100.00
2023-05-02T01:04:45.404Z,100.00
2023-05-02T01:08:35.867Z,100.00
2023-05-02T01:12:27.244Z,100.00
2023-05-02T01:16:13.255Z,100.00
2023-05-02T01:19:58.739Z,100.00
2023-05-02T01:23:47.685Z,100.00
2023-05-02T01:27:47.871Z,100.00
2023-05-02T01:31:35.835Z,100.00
2023-05-02T01:35:19.714Z,100.00
2023-05-02T01:39:04.086Z,100.00
2023-05-02T01:42:48.873Z,100.00
2023-05-02T01:46:36.241Z,99.98
2023-05-02T01:50:24.862Z,99.81
2023-05-02T01:54:09.661Z,99.42
2023-05-02T01:57:54.450Z,99.34
2023-05-02T02:01:40.338Z,100.00
2023-05-02T02:05:23.808Z,100.00
2023-05-02T02:09:06.726Z,100.00
2023-05-02T02:12:53.432Z,100.00
2023-05-02T02:16:40.621Z,100.00
2023-05-02T02:20:23.369Z,100.00
2023-05-02T02:24:09.472Z,100.00
2023-05-02T02:27:52.735Z,100.00
2023-05-02T02:31:36.484Z,100.00
2023-05-02T02:35:20.968Z,100.00
2023-05-02T02:39:14.173Z,100.00
2023-05-02T02:43:05.204Z,98.94
2023-05-02T02:46:50.554Z,100.00
2023-05-02T02:50:39.601Z,100.00
2023-05-02T02:54:28.082Z,98.99
2023-05-02T02:58:21.794Z,99.65
2023-05-02T03:02:08.325Z,99.70
2023-05-02T03:05:52.934Z,100.00
2023-05-02T03:09:42.545Z,100.00
2023-05-02T03:13:25.420Z,99.37
2023-05-02T03:17:08.570Z,97.77
2023-05-02T03:20:52.725Z,97.87
2023-05-02T03:24:38.387Z,99.66
2023-05-02T03:28:21.059Z,98.98
2023-05-02T03:32:03.831Z,99.21
2023-05-02T03:35:46.619Z,99.31
2023-05-02T03:39:30.770Z,99.46
2023-05-02T03:43:13.668Z,99.45
2023-05-02T03:46:56.426Z,99.53
2023-05-02T03:50:39.130Z,99.85
2023-05-02T03:54:21.762Z,99.37
2023-05-02T03:58:05.826Z,99.24
2023-05-02T04:01:50.370Z,99.54
2023-05-02T04:05:33.200Z,99.77
2023-05-02T04:09:15.911Z,100.00
2023-05-02T04:12:58.587Z,100.00
2023-05-02T04:16:42.641Z,100.00
2023-05-02T04:20:25.309Z,99.66
2023-05-02T04:24:07.966Z,99.72
2023-05-02T04:27:50.699Z,100.00
2023-05-02T04:31:33.668Z,99.62
2023-05-02T04:35:17.840Z,99.85
2023-05-02T04:39:00.650Z,99.48
2023-05-02T04:42:43.288Z,99.79
2023-05-02T04:46:26.293Z,99.65
2023-05-02T04:50:10.252Z,98.57
2023-05-02T04:53:56.986Z,98.19
2023-05-02T04:57:39.942Z,98.50
2023-05-02T05:01:24.139Z,97.50
2023-05-02T05:05:07.373Z,97.85
2023-05-02T05:08:50.113Z,97.32
2023-05-02T05:12:34.329Z,99.10
2023-05-02T05:16:18.110Z,100.00
2023-05-02T05:20:01.154Z,95.20
2023-05-02T05:23:46.195Z,97.14
2023-05-02T05:27:28.986Z,97.23
2023-05-02T05:31:16.905Z,96.51
2023-05-02T05:34:59.707Z,97.11
2023-05-02T05:38:46.309Z,97.86
2023-05-02T05:42:29.035Z,96.90
2023-05-02T05:46:13.103Z,95.74
2023-05-02T05:49:56.058Z,96.85
2023-05-02T05:53:38.745Z,95.96
2023-05-02T05:57:21.514Z,95.75
2023-05-02T06:01:04.282Z,93.10
2023-05-02T06:04:48.498Z,92.75
2023-05-02T06:08:31.416Z,92.50
2023-05-02T06:12:16.362Z,93.66
2023-05-02T06:16:02.040Z,92.55
2023-05-02T06:19:44.801Z,92.99
2023-05-02T06:23:28.903Z,93.63
2023-05-02T06:27:11.574Z,92.30
2023-05-02T06:30:59.054Z,91.78
2023-05-02T06:34:41.852Z,91.60
2023-05-02T06:38:24.664Z,90.50
2023-05-02T06:42:08.688Z,89.70
2023-05-02T06:45:54.292Z,88.92
2023-05-02T06:49:36.994Z,88.05
2023-05-02T06:53:22.633Z,89.27
2023-05-02T06:57:05.366Z,87.18
2023-05-02T07:00:50.437Z,88.14
2023-05-02T07:04:33.248Z,86.95
2023-05-02T07:08:15.945Z,86.08
2023-05-02T07:11:58.620Z,86.83
2023-05-02T07:15:41.302Z,87.72
2023-05-02T07:19:25.977Z,85.94
2023-05-02T07:23:09.020Z,86.68
2023-05-02T07:26:51.760Z,84.04
2023-05-02T07:30:34.411Z,83.30
2023-05-02T07:34:17.346Z,83.40
2023-05-02T07:38:01.446Z,83.67
2023-05-02T07:41:44.290Z,81.74
2023-05-02T07:45:26.968Z,79.58
2023-05-02T07:49:09.639Z,80.36
2023-05-02T07:52:52.319Z,81.14
2023-05-02T07:56:36.561Z,80.48
2023-05-02T08:00:20.003Z,79.49
2023-05-02T08:04:03.129Z,78.61
2023-05-02T08:07:46.520Z,78.39
2023-05-02T08:11:29.212Z,77.55
2023-05-02T08:15:14.500Z,78.55
2023-05-02T08:18:57.124Z,76.42
2023-05-02T08:22:39.769Z,76.54
2023-05-02T08:26:22.475Z,76.23
2023-05-02T08:30:06.684Z,74.35
2023-05-02T08:33:51.155Z,75.84
2023-05-02T08:37:33.936Z,74.97
2023-05-02T08:41:18.220Z,72.77
2023-05-02T08:45:01.979Z,73.49
2023-05-02T08:48:45.915Z,73.10
2023-05-02T08:52:30.518Z,72.63
2023-05-02T08:56:14.134Z,72.92
2023-05-02T08:59:56.855Z,72.63
2023-05-02T09:03:39.618Z,72.67
2023-05-02T09:07:22.296Z,71.32
2023-05-02T09:11:07.119Z,71.66
2023-05-02T09:15:11.499Z,70.19
2023-05-02T09:18:55.431Z,70.70
2023-05-02T09:22:38.394Z,68.60
2023-05-02T09:26:22.344Z,69.02
2023-05-02T09:30:23.375Z,69.10
2023-05-02T09:34:10.478Z,68.88
2023-05-02T09:37:53.964Z,68.21
2023-05-02T09:41:41.061Z,67.60
2023-05-02T09:45:26.510Z,66.33
2023-05-02T09:49:09.840Z,66.38
2023-05-02T09:53:02.664Z,67.27
2023-05-02T09:57:03.769Z,66.62
2023-05-02T10:00:47.941Z,65.23
2023-05-02T10:04:32.260Z,63.67
2023-05-02T10:08:15.524Z,63.60
2023-05-02T10:11:58.182Z,64.18
2023-05-02T10:15:44.957Z,65.13
2023-05-02T10:19:32.293Z,64.54
2023-05-02T10:23:15.957Z,65.00
2023-05-02T10:26:58.812Z,63.58
2023-05-02T10:30:41.880Z,63.33
2023-05-02T10:34:25.430Z,62.33
2023-05-02T10:38:09.766Z,62.04
2023-05-02T10:41:54.884Z,61.51
2023-05-02T10:45:38.655Z,60.16
2023-05-02T10:49:23.675Z,60.11
2023-05-02T10:53:32.890Z,62.10
2023-05-02T10:57:15.648Z,58.78
2023-05-02T11:01:47.798Z,67.54
2023-05-02T11:05:31.016Z,72.04
2023-05-02T11:09:35.135Z,76.93
2023-05-02T11:13:18.387Z,82.94
2023-05-02T11:17:11.307Z,84.54
2023-05-02T11:20:54.167Z,84.24
2023-05-02T11:24:42.182Z,85.41
2023-05-02T11:28:45.194Z,88.16
2023-05-02T11:33:07.152Z,89.77
2023-05-02T11:36:51.268Z,88.94
2023-05-02T11:40:34.093Z,84.87
2023-05-02T11:44:16.779Z,82.99
2023-05-02T11:48:00.229Z,80.94
2023-05-02T11:51:44.198Z,79.20
2023-05-02T11:55:28.376Z,82.18
2023-05-02T11:59:11.333Z,80.46
2023-05-02T12:02:54.215Z,79.90
2023-05-02T12:06:37.020Z,79.06
2023-05-02T12:10:19.770Z,79.16
2023-05-02T12:14:04.973Z,78.89
2023-05-02T12:17:52.256Z,79.28
2023-05-02T12:21:35.713Z,79.27
2023-05-02T12:25:18.836Z,76.88
2023-05-02T12:29:03.126Z,76.38
2023-05-02T12:32:46.099Z,75.49
2023-05-02T12:36:29.565Z,73.80
2023-05-02T12:40:16.909Z,70.98
2023-05-02T12:44:00.651Z,69.09
2023-05-02T12:47:47.340Z,68.11
2023-05-02T12:51:31.557Z,65.78
2023-05-02T12:55:17.706Z,66.38
2023-05-02T12:59:01.425Z,66.88
2023-05-02T13:02:44.197Z,65.52
2023-05-02T13:06:28.562Z,65.79
2023-05-02T13:10:12.260Z,65.50
2023-05-02T13:13:55.122Z,65.58
2023-05-02T13:17:38.187Z,64.90
2023-05-02T13:21:21.114Z,65.38
2023-05-02T13:25:05.700Z,66.11
2023-05-02T13:28:48.381Z,63.11
2023-05-02T13:32:31.304Z,63.59
2023-05-02T13:36:14.373Z,63.32
2023-05-02T13:39:57.060Z,63.63
2023-05-02T13:43:41.158Z,61.16
2023-05-02T13:47:24.262Z,61.71
2023-05-02T13:51:06.994Z,61.85
2023-05-02T13:54:49.715Z,59.56
2023-05-02T13:58:32.403Z,59.71
2023-05-02T14:02:16.674Z,58.54
2023-05-02T14:05:59.470Z,56.71
2023-05-02T14:09:42.247Z,57.11
2023-05-02T14:13:26.309Z,57.85
2023-05-02T14:17:09.003Z,59.69
2023-05-02T14:20:53.291Z,60.35
2023-05-02T14:24:36.428Z,59.92
2023-05-02T14:28:19.156Z,58.37
2023-05-02T14:32:01.940Z,58.05
2023-05-02T14:35:44.639Z,58.71
2023-05-02T14:39:28.736Z,59.33
2023-05-02T14:43:15.181Z,60.12
2023-05-02T14:46:57.953Z,60.31
2023-05-02T14:50:41.011Z,60.84
2023-05-02T14:54:29.542Z,61.11
2023-05-02T14:58:12.244Z,61.37
2023-05-02T15:01:54.966Z,60.42
2023-05-02T15:05:38.098Z,60.66
2023-05-02T15:09:20.971Z,59.31
2023-05-02T15:13:05.987Z,58.86
2023-05-02T15:16:48.731Z,58.81
2023-05-02T15:20:31.470Z,59.25
2023-05-02T15:24:14.249Z,59.36
2023-05-02T15:27:57.028Z,60.54
2023-05-02T15:31:41.635Z,59.07
2023-05-02T15:35:24.339Z,56.51
2023-05-02T15:39:07.646Z,54.82
2023-05-02T15:42:50.582Z,52.68
2023-05-02T15:46:33.390Z,49.24
2023-05-02T15:50:17.787Z,49.18
2023-05-02T15:54:00.457Z,50.54
2023-05-02T15:57:43.525Z,51.08
2023-05-02T16:01:26.275Z,50.98
2023-05-02T16:05:09.326Z,52.51
2023-05-02T16:08:53.406Z,52.36
2023-05-02T16:12:36.576Z,52.91
2023-05-02T16:16:19.805Z,54.05
2023-05-02T16:20:03.095Z,55.48
2023-05-02T16:23:46.012Z,55.59
2023-05-02T16:27:30.284Z,56.71
2023-05-02T16:31:14.865Z,57.70
2023-05-02T16:34:58.353Z,59.12
2023-05-02T16:38:41.427Z,59.78
2023-05-02T16:42:24.425Z,61.31
2023-05-02T16:46:08.619Z,64.22
2023-05-02T16:49:54.328Z,68.41
2023-05-02T16:53:37.003Z,71.67
2023-05-02T16:57:21.156Z,73.98
2023-05-02T17:01:05.289Z,77.91
2023-05-02T17:04:50.103Z,77.12
2023-05-02T17:08:33.333Z,78.91
2023-05-02T17:12:22.347Z,80.11
2023-05-02T17:16:05.622Z,82.46
2023-05-02T17:19:49.942Z,83.88
2023-05-02T17:23:32.652Z,84.93
2023-05-02T17:27:15.494Z,83.30
2023-05-02T17:30:59.332Z,84.91
2023-05-02T17:34:43.074Z,84.87
2023-05-02T17:38:27.793Z,85.45
2023-05-02T17:42:10.561Z,85.08
2023-05-02T17:45:53.364Z,85.86
2023-05-02T17:49:36.260Z,85.95
2023-05-02T17:53:21.176Z,85.74
2023-05-02T17:57:05.522Z,85.87
2023-05-02T18:00:48.780Z,84.67
2023-05-02T18:04:31.545Z,82.17
2023-05-02T18:08:14.771Z,81.75
2023-05-02T18:11:58.545Z,81.85
2023-05-02T18:15:42.684Z,82.28
2023-05-02T18:19:25.442Z,82.59
2023-05-02T18:23:08.173Z,82.66
2023-05-02T18:26:51.006Z,84.09
2023-05-02T18:30:37.105Z,84.71
2023-05-02T18:34:21.257Z,84.62
2023-05-02T18:38:06.927Z,84.94
2023-05-02T18:41:49.710Z,86.22
2023-05-02T18:45:33.217Z,86.12
2023-05-02T18:49:16.342Z,86.42
2023-05-02T18:53:00.601Z,87.26
2023-05-02T18:56:43.977Z,88.12
2023-05-02T19:00:30.156Z,86.87
2023-05-02T19:04:13.193Z,85.59
2023-05-02T19:07:55.968Z,85.19
2023-05-02T19:11:40.113Z,84.69
2023-05-02T19:15:23.839Z,86.27
2023-05-02T19:19:06.580Z,87.25
2023-05-02T19:22:49.768Z,87.06
2023-05-02T19:26:32.651Z,86.94
2023-05-02T19:30:16.939Z,86.33
2023-05-02T19:34:00.175Z,87.29
2023-05-02T19:37:44.063Z,87.60
2023-05-02T19:41:26.953Z,87.44
2023-05-02T19:45:13.796Z,88.07
2023-05-02T19:48:59.281Z,87.71
2023-05-02T19:52:46.717Z,87.79
2023-05-02T19:56:30.010Z,88.56
2023-05-02T20:00:14.017Z,88.98
2023-05-02T20:04:00.771Z,88.80
2023-05-02T20:07:44.532Z,88.87
2023-05-02T20:11:27.225Z,88.48
2023-05-02T20:15:10.836Z,88.32
2023-05-02T20:18:53.882Z,87.92
2023-05-02T20:22:39.774Z,87.93
2023-05-02T20:26:22.656Z,88.71
2023-05-02T20:30:06.495Z,89.65
2023-05-02T20:33:49.203Z,86.73
2023-05-02T20:37:32.267Z,87.92
2023-05-02T20:41:17.617Z,88.22
2023-05-02T20:45:01.941Z,88.30
2023-05-02T20:48:44.627Z,86.39
2023-05-02T20:52:27.330Z,84.36
2023-05-02T20:56:10.322Z,84.43
2023-05-02T20:59:54.795Z,85.57
2023-05-02T21:03:40.665Z,86.88
2023-05-02T21:07:23.523Z,86.00
2023-05-02T21:11:14.399Z,85.24
2023-05-02T21:14:59.744Z,84.95
2023-05-02T21:18:42.570Z,84.09
2023-05-02T21:22:26.994Z,83.47
2023-05-02T21:26:09.896Z,83.57
2023-05-02T21:29:53.836Z,83.21
2023-05-02T21:33:37.835Z,83.29
2023-05-02T21:37:20.751Z,84.82
2023-05-02T21:41:04.206Z,83.25
2023-05-02T21:44:46.831Z,83.54
2023-05-02T21:48:29.562Z,83.60
2023-05-02T21:52:13.731Z,83.61
2023-05-02T21:55:56.475Z,83.27
2023-05-02T21:59:39.375Z,82.13
2023-05-02T22:03:23.857Z,81.40
2023-05-02T22:07:06.728Z,81.04
2023-05-02T22:10:50.823Z,81.60
2023-05-02T22:14:44.335Z,83.06
2023-05-02T22:18:29.019Z,84.94
2023-05-02T22:22:11.858Z,84.24
2023-05-02T22:25:58.614Z,84.22
2023-05-02T22:29:41.316Z,85.10
2023-05-02T22:33:24.707Z,86.05
2023-05-02T22:37:07.575Z,86.64
2023-05-02T22:40:50.299Z,87.83
2023-05-02T22:44:43.393Z,87.27
2023-05-02T22:48:33.548Z,85.79
2023-05-02T22:52:18.335Z,86.56
2023-05-02T22:56:01.065Z,86.20
2023-05-02T22:59:45.197Z,85.73
2023-05-02T23:03:27.906Z,85.17
2023-05-02T23:07:11.031Z,83.85
2023-05-02T23:10:54.013Z,83.50
2023-05-02T23:14:36.672Z,83.33
2023-05-02T23:18:20.834Z,83.51
2023-05-02T23:22:03.550Z,83.03
2023-05-02T23:25:46.254Z,83.49
2023-05-02T23:29:28.947Z,83.73
2023-05-02T23:33:11.654Z,84.39
2023-05-02T23:36:55.863Z,85.64
2023-05-02T23:40:38.534Z,85.51
2023-05-02T23:44:21.320Z,86.03
2023-05-02T23:48:04.220Z,85.68
2023-05-02T23:51:46.911Z,84.61
2023-05-02T23:55:31.325Z,83.55
2023-05-02T23:59:14.047Z,82.60
